sensor_id;sensor_type;location;lat;lon;timestamp;P1;durP1;ratioP1;P2;durP2;ratioP2
15673;SDS011;7937;48.090;16.212;2024-01-11T21:10:53;17.53;;;12.77;;
15673;SDS011;7937;48.090;16.212;2024-01-11T21:13:56;19.10;;;11.57;;
15673;SDS011;7937;48.090;16.212;2024-01-11T21:17:19;16.67;;;12.55;;
15673;SDS011;7937;48.090;16.212;2024-01-11T21:20:22;15.07;;;10.37;;
15673;SDS011;7937;48.090;16.212;2024-01-11T21:23:25;16.77;;;10.57;;
15673;SDS011;7937;48.090;16.212;2024-01-11T21:26:28;16.07;;;10.83;;
15673;SDS011;7937;48.090;16.212;2024-01-11T21:29:31;14.87;;;9.83;;
15673;SDS011;7937;48.090;16.212;2024-01-11T21:32:36;18.07;;;11.17;;
15673;SDS011;7937;48.090;16.212;2024-01-11T21:35:39;14.13;;;10.00;;
15673;SDS011;7937;48.090;16.212;2024-01-11T21:38:49;16.83;;;10.10;;
15673;SDS011;7937;48.090;16.212;2024-01-11T21:41:52;16.43;;;10.00;;
15673;SDS011;7937;48.090;16.212;2024-01-11T21:44:57;16.53;;;10.53;;
15673;SDS011;7937;48.090;16.212;2024-01-11T21:48:05;18.90;;;10.57;;
15673;SDS011;7937;48.090;16.212;2024-01-11T21:51:15;16.93;;;11.03;;
15673;SDS011;7937;48.090;16.212;2024-01-11T21:54:17;16.00;;;10.50;;
15673;SDS011;7937;48.090;16.212;2024-01-11T21:57:21;17.37;;;10.40;;
15673;SDS011;7937;48.090;16.212;2024-01-11T22:00:23;17.10;;;10.77;;
15673;SDS011;7937;48.090;16.212;2024-01-11T22:03:26;17.90;;;10.57;;
15673;SDS011;7937;48.090;16.212;2024-01-11T22:06:29;18.97;;;10.90;;
15673;SDS011;7937;48.090;16.212;2024-01-11T22:09:33;17.90;;;11.07;;
15673;SDS011;7937;48.090;16.212;2024-01-11T22:12:36;21.03;;;12.00;;
15673;SDS011;7937;48.090;16.212;2024-01-11T22:15:38;21.43;;;12.30;;
15673;SDS011;7937;48.090;16.212;2024-01-11T22:19:01;19.90;;;12.10;;
15673;SDS011;7937;48.090;16.212;2024-01-11T22:22:08;18.90;;;12.50;;
15673;SDS011;7937;48.090;16.212;2024-01-11T22:25:10;20.30;;;12.13;;
15673;SDS011;7937;48.090;16.212;2024-01-11T22:28:18;18.57;;;12.67;;
15673;SDS011;7937;48.090;16.212;2024-01-11T22:31:20;17.90;;;12.00;;
15673;SDS011;7937;48.090;16.212;2024-01-11T22:34:23;19.90;;;13.57;;
15673;SDS011;7937;48.090;16.212;2024-01-11T22:37:26;17.37;;;11.80;;
15673;SDS011;7937;48.090;16.212;2024-01-11T22:40:28;22.47;;;13.37;;
15673;SDS011;7937;48.090;16.212;2024-01-11T22:43:34;20.17;;;13.40;;
15673;SDS011;7937;48.090;16.212;2024-01-11T22:46:37;24.63;;;14.90;;
15673;SDS011;7937;48.090;16.212;2024-01-11T22:49:41;23.67;;;15.63;;
15673;SDS011;7937;48.090;16.212;2024-01-11T22:52:44;22.93;;;14.70;;
15673;SDS011;7937;48.090;16.212;2024-01-11T22:55:46;26.33;;;15.73;;
15673;SDS011;7937;48.090;16.212;2024-01-11T22:58:48;24.40;;;14.73;;
15673;SDS011;7937;48.090;16.212;2024-01-11T23:01:51;23.47;;;14.97;;
15673;SDS011;7937;48.090;16.212;2024-01-11T23:04:53;25.93;;;15.93;;
15673;SDS011;7937;48.090;16.212;2024-01-11T23:08:01;25.93;;;16.70;;
15673;SDS011;7937;48.090;16.212;2024-01-11T23:11:05;27.90;;;16.53;;
15673;SDS011;7937;48.090;16.212;2024-01-11T23:14:12;27.20;;;16.47;;
15673;SDS011;7937;48.090;16.212;2024-01-11T23:17:34;29.43;;;17.57;;
15673;SDS011;7937;48.090;16.212;2024-01-11T23:20:42;28.13;;;18.17;;
15673;SDS011;7937;48.090;16.212;2024-01-11T23:23:44;29.73;;;18.93;;
15673;SDS011;7937;48.090;16.212;2024-01-11T23:26:47;31.10;;;19.30;;
15673;SDS011;7937;48.090;16.212;2024-01-11T23:29:52;31.90;;;18.87;;
15673;SDS011;7937;48.090;16.212;2024-01-11T23:32:54;27.97;;;18.07;;
15673;SDS011;7937;48.090;16.212;2024-01-11T23:35:57;27.23;;;17.37;;
15673;SDS011;7937;48.090;16.212;2024-01-11T23:38:59;27.63;;;16.80;;
15673;SDS011;7937;48.090;16.212;2024-01-11T23:42:02;31.47;;;18.80;;
15673;SDS011;7937;48.090;16.212;2024-01-11T23:45:04;29.23;;;17.67;;
15673;SDS011;7937;48.090;16.212;2024-01-11T23:48:08;30.70;;;18.57;;
15673;SDS011;7937;48.090;16.212;2024-01-11T23:51:12;34.80;;;19.30;;
15673;SDS011;7937;48.090;16.212;2024-01-11T23:54:15;31.97;;;18.30;;
15673;SDS011;7937;48.090;16.212;2024-01-11T23:57:18;29.67;;;18.10;;
